createdAt,value
2023-04-26T05:04:03.997Z,507.00
2023-04-26T05:05:03.871Z,507.00
2023-04-26T05:06:04.804Z,509.00
2023-04-26T05:07:03.874Z,511.00
2023-04-26T05:08:04.879Z,510.00
2023-04-26T05:09:03.876Z,510.00
2023-04-26T05:10:03.923Z,510.00
2023-04-26T05:11:04.005Z,510.00
2023-04-26T05:12:05.012Z,506.00
2023-04-26T05:13:04.053Z,504.00
2023-04-26T05:14:04.122Z,507.00
2023-04-26T05:15:04.109Z,508.00
2023-04-26T05:16:05.191Z,511.00
2023-04-26T05:17:05.170Z,514.00
2023-04-26T05:18:05.259Z,517.00
2023-04-26T05:19:06.563Z,517.00
2023-04-26T05:20:04.232Z,519.00
2023-04-26T05:21:05.208Z,522.00
2023-04-26T05:22:04.189Z,523.00
2023-04-26T05:23:05.200Z,523.00
2023-04-26T05:24:04.167Z,530.00
2023-04-26T05:25:05.159Z,538.00
2023-04-26T05:26:05.164Z,541.00
2023-04-26T05:27:05.151Z,546.00
2023-04-26T05:28:05.149Z,553.00
2023-04-26T05:29:04.131Z,562.00
2023-04-26T05:30:04.136Z,573.00
2023-04-26T05:31:05.118Z,577.00
2023-04-26T05:32:04.230Z,574.00
2023-04-26T05:33:04.177Z,570.00
2023-04-26T05:34:05.108Z,567.00
2023-04-26T05:35:04.088Z,559.00
2023-04-26T05:36:05.129Z,557.00
2023-04-26T05:37:05.077Z,564.00
2023-04-26T05:38:05.083Z,571.00
2023-04-26T05:39:05.059Z,586.00
2023-04-26T05:40:05.059Z,594.00
2023-04-26T05:41:05.049Z,601.00
2023-04-26T05:42:05.028Z,598.00
2023-04-26T05:43:05.049Z,592.00
2023-04-26T05:44:04.021Z,566.00
2023-04-26T05:45:04.111Z,557.00
2023-04-26T05:46:04.066Z,568.00
2023-04-26T05:47:05.009Z,590.00
2023-04-26T05:48:05.030Z,599.00
2023-04-26T05:49:04.994Z,599.00
2023-04-26T05:50:04.966Z,579.00
2023-04-26T05:51:04.974Z,552.00
2023-04-26T05:52:05.016Z,561.00
2023-04-26T05:53:04.004Z,570.00
2023-04-26T05:54:04.949Z,586.00
2023-04-26T05:55:03.958Z,601.00
2023-04-26T05:56:03.945Z,633.00
2023-04-26T05:57:04.964Z,648.00
2023-04-26T05:58:04.933Z,659.00
2023-04-26T05:59:04.938Z,671.00
2023-04-26T06:00:04.922Z,686.00
2023-04-26T06:01:03.923Z,698.00
2023-04-26T06:02:03.946Z,709.00
2023-04-26T06:03:05.663Z,717.00
2023-04-26T06:04:04.367Z,729.00
2023-04-26T06:05:04.113Z,752.00
